x

9449880 - Friday Harbor, Wa (frdw1) Weather Station

10:30 - Tue 5th May 2015 All times are PDT. -7 hours from GMT.

  • Wind
    1mph, 2mph gusts
  • Sea Temp 49°f
  • Air Temp 46°f
  • Sea Pressure 1019.5mb
  • 9449880 - Friday Harbor, Wa
  • 9449880 - Friday Harbor, Wa

More Historic Weather Station data

Upgrade to MSW Pro to gain access to the past 30 days of data for over 8000 Wavebouys and Weather Stations around the globe.

Join Pro

Comparision Forecast

View Surf forecast
   
mar. 05/05 10:30 1 2 mph 1019.5mb 49f 46f
10:24 1 2 mph 1019.5mb 49f 46f
10:18  -  2 mph 1019.6mb 49f 46f
10:12  -  1 mph 1019.6mb 49f 46f
10:06 1 2 mph 1019.5mb 49f 46f
10:00 1 2 mph 1019.5mb 49f 47f
9:36  -  mph 1019.2mb 49f 47f
9:30  -  1 mph 1019.1mb 49f 47f
9:24  -  1 mph 1019mb 49f 48f
9:18 1
mph
1019mb 49f 48f
9:12  -  2 mph 1019mb 49f 49f
9:06 1 5 mph 1018.9mb 49f 49f
9:00 2 3 mph 1018.9mb 49f 48f
8:36 2 7 mph 1018.7mb 49f 49f
8:30 5 9 mph 1018.6mb 49f 49f
8:24 3 8 mph 1018.6mb 49f 49f
8:18 8 13 mph 1018.6mb 49f 50f
8:12 5 7 mph 1018.6mb 49f 50f
8:06 6 8 mph 1018.6mb 49f 50f
8:00 3 7 mph 1018.6mb 49f 50f
7:36 9 13 mph 1018.3mb 49f 51f
7:30 9 11 mph 1018.3mb 49f 51f
7:24 9 13 mph 1018.2mb 49f 51f
7:18 8 10 mph 1018.2mb 49f 51f
7:12 9 14 mph 1018.2mb 49f 51f
7:06 9 13 mph 1018.2mb 49f 51f
7:00 10 13 mph 1018.2mb 49f 51f
6:36 9 10 mph 1018.1mb 49f 51f
6:30 8 9 mph 1018.1mb 49f 51f
6:24 7 9 mph 1018.1mb 49f 51f
6:18 6 8 mph 1018.1mb 49f 52f
6:12 8 11 mph 1018.2mb 49f 52f
6:06 7 11 mph 1018.2mb 49f 52f
6:00 3 6 mph 1018.1mb 49f 52f
5:24  -  mph 1018mb 49f -
5:18  -  mph 1018mb 49f -
5:12  -  mph 1017.9mb 49f -
5:06  -  mph 1017.9mb 49f -
4:36 6
mph
1017.8mb 49f 50f
4:30 2 5 mph 1017.9mb 49f 52f
4:24  -  1 mph 1017.8mb 49f 51f
4:18  -  5 mph 1017.8mb 49f 52f
4:12 1 5 mph 1018mb 49f 52f
4:06 1 3 mph 1018mb 49f 52f
4:00 2 6 mph 1018mb 49f 52f
3:36 8 13 mph 1018.1mb 50f 51f
3:30 8 14 mph 1018.1mb 50f 51f
3:24 7 10 mph 1018.1mb 50f 51f
3:18 7 10 mph 1018.1mb 50f 51f
3:12 6 9 mph 1018mb 50f 51f
3:06 5 8 mph 1018mb 50f 50f
3:00 7 9 mph 1018mb 50f 50f
2:24  -  mph 1018.1mb 50f -
2:18  -  mph 1018mb 50f -
2:12  -  mph 1018mb 50f -
2:06  -  mph 1018mb 50f -
2:00  -  mph 1017.9mb 50f -
1:36 8 11 mph 1017.7mb 50f 53f
1:30 10 14 mph 1017.6mb 50f 52f
1:24 9 15 mph 1017.5mb 50f 52f
1:18 10 17 mph 1017.5mb 50f 53f
1:12 10 14 mph - - 52f
1:06 10 16 mph 1017.6mb 50f 52f
1:00 14 16 mph 1017.7mb 50f 52f
12:36 15 18 mph 1017.6mb 50f 50f
12:30 15 17 mph 1017.6mb 50f 51f
12:24 14 17 mph 1017.6mb 50f 50f
12:18 13 16 mph 1017.5mb 50f 51f
12:12 15 17 mph 1017.5mb 50f 50f
12:06 13 16 mph 1017.5mb 50f 50f
12:00 14 17 mph 1017.5mb 50f 50f
11:36 14 18 mph 1017.4mb 50f 50f
11:30 15 20 mph 1017.4mb 50f 50f
11:24 15 18 mph 1017.3mb 50f 49f
11:18 13 17 mph 1017.2mb 50f 50f
11:12 14 20 mph 1017.2mb 50f 49f
11:06 14 18 mph 1017.2mb 50f 49f
11:00 13 16 mph 1017.2mb 50f 49f
10:36 14 18 mph 1016.9mb 50f 48f
10:30 15 17 mph 1016.9mb 50f 48f
10:24 14 17 mph 1016.8mb 50f 48f
10:18 15 20 mph 1016.7mb 50f 48f
10:12 17 20 mph 1016.7mb 50f 47f
10:06 13 21 mph 1016.6mb 50f 48f
10:00 14 18 mph 1016.5mb 50f 48f
9:36 16 20 mph 1016.5mb 49f 47f
9:30 14 16 mph 1016.4mb 49f 47f
9:24 14 24 mph 1016.4mb 49f 47f
9:18 15 18 mph 1016.4mb 49f 47f
9:12 14 17 mph 1016.3mb 49f 47f
9:06 13 18 mph 1016.3mb 49f 47f
9:00 10 13 mph 1016.2mb 49f 47f
8:36 8 10 mph 1016mb 49f 47f
8:30 7 10 mph 1015.9mb 49f 46f
8:24 9 13 mph 1015.9mb 49f 46f
8:18 8 10 mph 1015.8mb 49f 46f
8:12 7 9 mph 1015.7mb 49f 46f
8:06 6 8 mph 1015.6mb 49f 46f
8:00 5 6 mph 1015.5mb 49f 46f
7:36 3 5 mph 1015.3mb 49f 45f
7:30 3
mph
1015.3mb 49f 45f
7:24 2 5 mph - - 45f
7:18 5 6 mph 1015.2mb 49f 45f
7:12 2 3 mph 1015.1mb 49f 45f
7:06  -  1 mph 1015.1mb 49f 45f
7:00  -  1 mph 1015.1mb 49f 45f
6:36  -  mph 1015mb 49f 45f
6:30  -  mph 1015mb 49f 45f
6:24  -  1 mph 1015mb 49f 45f
6:18  -  1 mph 1015mb 49f 45f
6:12  -  mph 1014.9mb 49f 45f
6:06  -  1 mph 1014.9mb 49f 45f
6:00  -  1 mph 1014.9mb 49f 44f
5:36 1 3 mph 1014.9mb 49f 45f
5:30 2 6 mph 1014.8mb 49f 45f
5:24 3 6 mph 1014.8mb 49f 46f
5:18 3 6 mph 1014.8mb 49f 45f
5:12 1 3 mph 1014.7mb 49f 46f
5:06 3 5 mph 1014.7mb 49f 46f
5:00 2 3 mph 1014.7mb 49f 46f
4:36 2 5 mph 1014.7mb 50f 46f
4:30 3 6 mph 1014.7mb 50f 46f
4:24 2 5 mph 1014.6mb 50f 46f
4:18 1 3 mph 1014.6mb 50f 46f
4:12 1 2 mph - - 46f
4:06  -  1 mph 1014.4mb 49f 46f
4:00 1 3 mph 1014.4mb 50f 46f
3:36 3 5 mph 1014.5mb 50f 46f
3:30 2 3 mph 1014.5mb 50f 46f
3:24 3 6 mph 1014.5mb 50f 46f
3:18 2 5 mph 1014.5mb 50f 46f
3:12 2 3 mph 1014.5mb 50f 46f
3:06 2 5 mph 1014.5mb 50f 47f
3:00 2 3 mph 1014.5mb 50f 47f
2:36 1
mph
1014.7mb 50f 47f
2:30  -  1 mph 1014.7mb 50f 47f
2:24  -  1 mph 1014.8mb 50f 47f
2:18  -  1 mph 1014.8mb 50f 47f
2:12 3 5 mph 1014.8mb 50f 47f
2:06 3 5 mph 1014.7mb 50f 47f
2:00 2 3 mph 1014.6mb 50f 47f
1:36 5
mph
1014.7mb 50f 48f
1:30 3 5 mph 1014.7mb 50f 47f
1:24 1 3 mph 1014.7mb 50f 47f
1:18 1 3 mph 1014.7mb 50f 47f
1:12 1 2 mph - - 47f
1:06 1 2 mph 1014.7mb 50f 47f
1:00 2 3 mph 1014.6mb 50f 47f
12:36  -  1 mph 1014.5mb 50f 47f
12:30  -  2 mph 1014.5mb 50f 47f
12:24  -  1 mph 1014.4mb 50f 47f
12:18  -  2 mph 1014.4mb 50f 47f
12:12 1 2 mph 1014.4mb 50f 47f
12:06  -  2 mph - - 47f
12:00 1 2 mph - - 47f
lun. 05/04 11:18  -  mph 1014.4mb 50f -
10:54  -  mph 1014.2mb 50f -
10:48  -  mph 1014.1mb 50f -
10:36  -  1 mph 1014.1mb 50f 47f
10:30 1 2 mph 1014mb 50f 47f
10:24  -  1 mph 1013.9mb 50f 47f
10:18  -  1 mph 1013.9mb 50f 48f
10:12 1 2 mph 1013.9mb 50f 48f
10:06  -  2 mph 1014mb 50f 48f
10:00 1 3 mph 1014mb 50f 48f
9:36  -  mph 1013.9mb 49f 47f
9:30  -  1 mph 1013.9mb 49f 47f
9:24  -  1 mph 1013.8mb 49f 47f
9:18 1 2 mph 1013.7mb 49f 47f
9:12 1 2 mph 1013.7mb 49f 48f
9:06  -  1 mph 1013.7mb 49f 48f
9:00  -  1 mph 1013.7mb 49f 48f
8:54  -  1 mph 1013.6mb 49f 48f
8:48  -  1 mph 1013.6mb 49f 48f
8:36  -  1 mph 1013.5mb 49f 48f
8:30  -  1 mph 1013.5mb 49f 48f
8:24  -  1 mph 1013.5mb 49f 48f
8:18  -  mph 1013.6mb 49f 48f
8:12  -  1 mph 1013.6mb 49f 48f
8:06 1 2 mph 1013.6mb 49f 48f
8:00  -  1 mph 1013.6mb 49f 48f
7:54 1 2 mph 1013.7mb 49f 48f
7:48  -  2 mph 1013.7mb 49f 48f
7:24  -  mph 1013.8mb 49f -
7:18  -  mph 1013.9mb 49f -
7:12  -  mph 1013.9mb 49f -
7:06  -  mph 1014mb 49f -
7:00  -  mph 1014.1mb 49f -
6:48  -  mph 1014.2mb 49f -
6:36 7 13 mph 1014.3mb 49f 51f
6:30 8 11 mph 1014.2mb 49f 51f
6:24 9 16 mph 1014.2mb 49f 51f
6:18 11 14 mph 1014.2mb 49f 52f
6:12 10 14 mph 1014.2mb 49f 52f
6:06 6 10 mph - - 51f
6:00 5 11 mph 1014.1mb 49f 51f
5:54 5 10 mph 1014.1mb 49f 51f
5:48 9 16 mph 1014.1mb 49f 52f
5:36 16 20 mph 1014.1mb 49f 54f
5:30 15 20 mph 1014mb 49f 54f
5:24 16 20 mph 1013.9mb 49f 55f
5:18 15 18 mph 1013.9mb 49f 55f
5:12 15 20 mph 1013.9mb 49f 55f
5:06 17 21 mph 1013.9mb 49f 55f
5:00 16 22 mph 1013.9mb 49f 55f
4:54 13 22 mph 1013.8mb 49f 55f
4:48 17 22 mph 1013.8mb 49f 56f
4:36 17 21 mph 1013.8mb 49f 56f
4:30 20 24 mph 1013.8mb 49f 56f
4:24 14 17 mph 1013.7mb 49f 56f
4:18 15 20 mph 1013.7mb 49f 56f
4:12 15 18 mph 1013.7mb 49f 56f
4:06 16 20 mph - - 56f
4:00 17 28 mph - - 57f
3:54 17 22 mph 1013.7mb 49f 57f
3:48 16 21 mph 1013.7mb 49f 57f
3:36 13 21 mph 1013.6mb 50f 56f
3:30 13 18 mph 1013.7mb 50f 57f
3:24 14 17 mph 1013.7mb 50f 56f
3:18 11 15 mph 1013.7mb 50f 57f
3:12 9 14 mph 1013.7mb 50f 57f
3:06 9 13 mph - - 56f
3:00 10 16 mph 1013.7mb 50f 56f
2:54 10 14 mph 1013.7mb 50f 56f
2:48 10 15 mph - - 56f
2:24  -  mph 1013.4mb 50f -
2:18  -  mph 1013.3mb 50f -
2:12  -  mph 1013.2mb 50f -
2:06  -  mph 1013.3mb 50f -
2:00  -  mph 1013.3mb 50f -
1:54  -  mph 1013.2mb 50f -
1:48  -  mph 1013.3mb 51f -
1:36 17 22 mph 1013.2mb 50f 57f
1:30 17 22 mph 1013.1mb 50f 56f
1:24 16 21 mph 1013mb 50f 57f
1:18 14 22 mph 1013mb 50f 56f
1:12 16 20 mph 1013mb 50f 56f
1:06 14 17 mph 1013.1mb 50f 56f
1:00 15 18 mph 1013.1mb 50f 55f
12:54 17 23 mph 1013.1mb 50f 55f
12:48 17 21 mph 1013.1mb 50f 56f
12:36 15 24 mph 1013mb 50f 56f
12:30 11 18 mph 1013mb 50f 56f
12:24 14 20 mph 1012.9mb 50f 55f
12:18 17 22 mph 1012.9mb 50f 55f
12:12 15 17 mph 1012.9mb 50f 55f
12:06 16 22 mph 1012.8mb 50f 54f
12:00 14 20 mph 1012.7mb 50f 54f
11:54 16 21 mph 1012.7mb 50f 54f
11:48 14 18 mph 1012.7mb 50f 54f
11:36 17 22 mph 1012.7mb 50f 53f
11:30 17 22 mph 1012.6mb 50f 53f
11:24 18 23 mph 1012.5mb 50f 53f
11:18 16 24 mph 1012.5mb 50f 53f
11:12 17 22 mph 1012.4mb 50f 53f
11:06 18 22 mph 1012.3mb 50f 53f
11:00 17 22 mph 1012.1mb 50f 53f
10:54 17 21 mph 1012.1mb 50f 53f
10:48 16 22 mph 1012mb 50f 53f
10:36 16 20 mph 1011.9mb 50f 53f
10:30 15 21 mph 1011.8mb 50f 53f
10:24 15 20 mph 1011.7mb 50f 53f
10:18 15 21 mph 1011.7mb 50f 53f
10:12 17 22 mph - - 53f
10:06 14 17 mph 1011.6mb 50f 53f
10:00 15 17 mph 1011.6mb 50f 52f
9:54 15 18 mph 1011.6mb 50f 52f
9:48 15 18 mph 1011.6mb 50f 53f
9:36 13 18 mph 1011.5mb 50f 53f
9:30 14 18 mph 1011.5mb 50f 52f
9:24 11 18 mph 1011.4mb 50f 53f
9:18 15 18 mph 1011.4mb 50f 52f
9:12 11 16 mph 1011.3mb 50f 52f
9:06 13 15 mph 1011.3mb 50f 51f
9:00 13 16 mph 1011.3mb 50f 51f
8:54 9 14 mph 1011.3mb 50f 51f
8:48 9 13 mph 1011.3mb 50f 51f
8:36 6 8 mph 1011.3mb 50f 50f
8:30 6 9 mph 1011.3mb 50f 50f
8:24 8 10 mph - - 50f
8:18 6 8 mph 1011.3mb 50f 50f
8:12 5 6 mph 1011.3mb 50f 50f
8:06 2 3 mph 1011.4mb 50f 50f
8:00 2 5 mph 1011.4mb 50f 50f
7:54 2 3 mph 1011.5mb 50f 50f
7:48 2 5 mph 1011.5mb 50f 50f
7:36 2 3 mph 1011.4mb 50f 50f
7:30  -  2 mph - - 50f
7:24 2
mph
- - 49f
7:18 1 3 mph 1011.4mb 50f 49f
7:12 1 2 mph 1011.4mb 50f 49f
7:06  -  2 mph 1011.3mb 50f 49f
7:00  -  1 mph 1011.3mb 50f 48f
6:54  -  2 mph 1011.2mb 50f 47f
6:48  -  2 mph 1011.2mb 50f 47f
6:36 2
mph
1011.3mb 50f 46f
6:30 2 3 mph 1011.2mb 50f 46f
6:24  -  2 mph 1011.2mb 50f 47f
6:18  -  1 mph 1011.1mb 50f 47f
6:12 1 5 mph 1011.1mb 50f 47f
6:06 3 5 mph - - 47f
6:00 3 5 mph 1011mb 49f 47f
5:54 2 3 mph 1011mb 49f 47f
5:48 3 5 mph 1011mb 49f 47f
5:36  -  mph 1011mb 49f -
5:24  -  mph 1011mb 50f -
5:18  -  mph 1011mb 50f -
5:12  -  mph 1011mb 50f -
5:06  -  mph 1011.1mb 50f -
5:00  -  mph 1011.1mb 50f -
4:48  -  mph 1011.2mb 50f -
4:36  -  1 mph 1011.3mb 50f 47f
4:30 2
mph
1011.3mb 50f 47f
4:24  -  3 mph 1011.3mb 50f 47f
4:18 2 5 mph 1011.3mb 50f 48f
4:12 3 6 mph 1011.3mb 50f 48f
4:06 2 3 mph 1011.3mb 50f 48f
4:00 2 3 mph 1011.3mb 50f 48f
3:54 1 2 mph 1011.3mb 50f 47f
3:48 1 3 mph 1011.4mb 50f 47f
3:36 1 2 mph 1011.4mb 50f 47f
3:30  -  2 mph 1011.5mb 50f 47f
3:24  -  1 mph 1011.5mb 50f 46f
3:18  -  1 mph 1011.4mb 50f 46f
3:12  -  1 mph 1011.4mb 50f 47f
3:06  -  1 mph 1011.4mb 50f 46f
3:00 2 3 mph 1011.4mb 50f 46f
2:54  -  mph 1011.4mb 50f 46f
2:48  -  1 mph 1011.5mb 50f 47f
2:36  -  mph 1011.5mb 50f 46f
2:30  -  1 mph 1011.5mb 50f 47f
2:24  -  2 mph 1011.5mb 50f 47f
2:18 1 2 mph 1011.5mb 50f 47f
2:12 2
mph
1011.5mb 50f 47f
2:06  -  2 mph 1011.5mb 50f 47f
2:00  -  2 mph 1011.5mb 50f 48f
1:54 1 2 mph 1011.6mb 50f 48f
1:48 2
mph
1011.5mb 50f 48f
1:36  -  1 mph 1011.6mb 50f 48f
1:30 1 2 mph 1011.6mb 50f 48f
1:24 1 2 mph 1011.6mb 50f 48f
1:18 1 2 mph 1011.7mb 50f 48f
1:12  -  1 mph 1011.8mb 50f 48f
1:06  -  1 mph 1011.8mb 50f 48f
1:00  -  1 mph 1011.9mb 50f 48f
12:54  -  1 mph 1011.9mb 50f 48f
12:48  -  1 mph 1011.9mb 50f 48f
12:36  -  1 mph 1011.9mb 50f 48f
12:30  -  1 mph 1011.9mb 50f 48f
12:24  -  mph 1011.9mb 50f 47f
12:18  -  1 mph 1011.9mb 50f 47f
12:12 1
mph
1011.8mb 50f 47f
12:06  -  1 mph 1011.8mb 50f 47f
12:00  -  2 mph 1011.8mb 50f 47f
dim. 05/03 11:54 2
mph
- - 48f
11:48 1 2 mph - - 48f
11:18  -  mph 1011.9mb 50f -
10:54  -  mph 1012mb 50f -
10:48  -  mph 1012.1mb 50f -
10:24  -  mph 1012.1mb 50f -
10:18  -  mph 1012.1mb 50f -
10:12  -  mph 1012.1mb 50f -
9:54  -  mph 1012.3mb 50f -
9:48  -  mph 1012.3mb 50f -
9:36  -  1 mph 1012.4mb 50f 51f
9:30  -  2 mph 1012.4mb 50f 51f
9:24 1 2 mph 1012.4mb 50f 51f
9:18 1 2 mph 1012.5mb 50f 52f
9:12  -  1 mph 1012.5mb 50f 52f
9:06  -  1 mph - - 52f
9:00  -  2 mph - - 53f
8:54  -  1 mph 1012.4mb 50f 53f
8:48  -  1 mph 1012.3mb 50f 53f
8:36 1 5 mph 1012.2mb 50f 55f
8:30 2 5 mph 1012.2mb 50f 56f
8:24 3 5 mph 1012.3mb 49f 55f
8:18 3 5 mph 1012.3mb 49f 55f
8:12 3 7 mph - - 57f
8:06 3 6 mph 1012.2mb 49f 58f
8:00 3 6 mph 1012.3mb 49f 58f
7:54 2 7 mph 1012.3mb 49f 58f
7:48 2 6 mph 1012.3mb 49f 58f
7:36 3 8 mph 1012.4mb 49f 59f
7:30 5 8 mph 1012.3mb 49f 59f
7:24 5 9 mph - - 60f
7:18 6 9 mph 1012.3mb 49f 60f
7:12 5 9 mph 1012.4mb 49f 60f
7:06 6 8 mph 1012.5mb 49f 60f
7:00 5 7 mph 1012.5mb 49f 60f
6:54 5 7 mph - - 60f
6:36 6 7 mph 1012.6mb 49f 60f
6:30 5 7 mph 1012.7mb 49f 61f
6:24 5 6 mph 1012.7mb 49f 61f
6:18 2 6 mph 1012.8mb 49f 60f
6:12  -  1 mph - - 58f
6:06 1 2 mph 1012.9mb 49f 59f
6:00 1 2 mph 1013mb 49f 60f
5:54 1 2 mph 1013.1mb 49f 60f
5:48  -  2 mph 1013.1mb 49f 62f
5:36 3 6 mph 1013.2mb 49f 62f
5:30 5 6 mph 1013.2mb 49f 62f
5:24 5 6 mph 1013.2mb 49f 62f
5:18 5 6 mph 1013.3mb 49f 62f
5:12 3 6 mph 1013.3mb 49f 62f
5:06 3 6 mph 1013.4mb 49f 62f
5:00 3 7 mph 1013.4mb 49f 62f
4:54 6 9 mph 1013.5mb 49f 61f
4:48 5 7 mph 1013.6mb 49f 62f
4:36 6 8 mph 1013.8mb 49f 62f
4:30 6 8 mph 1013.9mb 49f 61f
4:24 5 7 mph 1013.9mb 49f 61f
4:18 3 7 mph 1014mb 49f 61f
4:12 3 8 mph 1014.1mb 49f 61f
4:06 6 8 mph 1014.2mb 49f 61f
4:00 6 9 mph 1014.3mb 49f 61f
3:54 5 8 mph 1014.3mb 49f 61f
3:48 6 8 mph 1014.5mb 49f 61f
3:36 5 8 mph 1014.6mb 49f 60f
3:30 5 8 mph 1014.7mb 49f 61f
3:24 6 10 mph 1014.8mb 49f 60f
3:18 3 7 mph 1014.8mb 49f 60f
3:12 3 8 mph 1014.9mb 49f 60f
3:06 5 9 mph 1015mb 49f 60f
3:00 6 9 mph 1015.1mb 50f 59f
2:54 3 8 mph - - 59f
2:48 6 8 mph 1015.3mb 50f 59f
2:36 5 9 mph 1015.4mb 50f 59f
2:30 6 9 mph 1015.4mb 50f 58f
2:24 8 9 mph 1015.4mb 50f 58f
2:18 7 10 mph 1015.5mb 50f 58f
2:12 5 9 mph 1015.5mb 50f 58f
2:06 5 9 mph 1015.6mb 50f 57f
2:00 5 8 mph 1015.6mb 50f 58f
1:54 6 10 mph - - 58f
1:48 5 8 mph 1015.8mb 50f 57f
1:36 5 8 mph 1015.9mb 50f 57f
1:30 5 10 mph 1016mb 50f 57f
1:24 5 8 mph 1016mb 50f 57f
1:18 5 8 mph 1016.1mb 50f 57f
1:12 3 7 mph 1016.1mb 50f 58f
1:06 6 9 mph 1016.2mb 50f 56f
1:00 3 8 mph 1016.2mb 49f 56f
12:54 5 8 mph 1016.2mb 49f 56f
12:48 5 8 mph 1016.3mb 49f 57f
12:36 3 8 mph 1016.4mb 49f 56f
12:30 3 6 mph 1016.5mb 49f 56f
12:24 2 6 mph 1016.5mb 49f 57f
12:18 3 7 mph 1016.6mb 49f 56f
12:12 3 9 mph 1016.6mb 50f 56f
12:06 3 9 mph 1016.6mb 50f 56f
12:00 5 9 mph 1016.6mb 50f 55f
11:54 2 9 mph 1016.7mb 50f 56f
11:48 2 8 mph 1016.9mb 50f 56f
11:36 2 7 mph 1016.9mb 50f 56f
11:30 3 8 mph 1017mb 50f 55f
11:24 5 9 mph 1017mb 50f 55f
11:18 2 7 mph 1017mb 50f 55f
11:12 5 8 mph - - 55f
11:06 5 9 mph 1017mb 50f 54f
11:00 5 8 mph 1017mb 50f 54f
10:54 5 9 mph 1017mb 50f 53f
10:48 5 9 mph 1017mb 50f 54f
10:36 6 9 mph 1017mb 50f 53f
10:30 3 8 mph 1016.9mb 50f 53f
10:24 3 9 mph 1016.9mb 50f 53f
10:18 3 9 mph 1016.9mb 50f 53f
10:12 5 7 mph 1016.9mb 49f 54f
10:06 1 6 mph 1016.9mb 49f 55f
10:00 6 9 mph 1016.9mb 49f 54f
9:54 5 10 mph 1016.8mb 49f 53f
9:48 7 11 mph 1016.8mb 49f 53f
9:36 8 14 mph 1017mb 49f 53f
9:30 7 13 mph 1017mb 49f 53f
9:24 7 11 mph 1016.9mb 49f 53f
9:18 7 13 mph 1016.9mb 49f 53f
9:12 7 13 mph 1017mb 49f 53f
9:06 6 10 mph 1017mb 49f 53f
9:00 5 10 mph 1017mb 49f 53f
8:54 5 9 mph 1017.1mb 49f 53f
8:48 6 14 mph 1017.2mb 49f 53f
8:36 3 9 mph 1017.2mb 49f 53f
8:30 2 7 mph 1017.2mb 49f 53f
8:24 1 3 mph 1017.2mb 49f 51f
8:18 2
mph
1017.3mb 49f 49f
8:12 1 2 mph 1017.3mb 49f 49f
8:06  -  1 mph 1017.2mb 49f 51f
8:00 1
mph
1017.2mb 49f 49f
7:54  -  1 mph 1017.2mb 49f 49f
7:48  -  1 mph 1017.3mb 49f 49f
7:36  -  2 mph 1017.3mb 49f 46f
7:30 2 3 mph 1017.2mb 49f 45f
7:24  -  1 mph 1017.2mb 49f 46f
7:18  -  2 mph 1017.2mb 49f 44f
7:12 2
mph
1017.1mb 49f 44f
7:06 2 3 mph - - 43f
7:00 1 3 mph - - 44f
6:54 2 3 mph 1017mb 49f 43f
6:48 2 3 mph 1017mb 49f 43f
6:36  -  mph 1016.9mb 49f -
6:24  -  mph 1016.9mb 49f -
6:18  -  mph 1016.8mb 49f -
6:12  -  mph 1016.7mb 49f -
6:06  -  mph 1016.7mb 49f -
6:00  -  mph 1016.7mb 49f -
5:54  -  mph 1016.6mb 49f -
5:48  -  mph 1016.6mb 49f -
5:36 1 2 mph 1016.7mb 49f 42f
5:30 1 2 mph 1016.7mb 49f 42f
5:24 2
mph
1016.6mb 49f 41f
5:18 1 2 mph 1016.6mb 49f 42f
5:12 1 2 mph 1016.6mb 49f 42f
5:06  -  mph - - 42f
5:00  -  mph - - 42f
4:54  -  2 mph 1016.8mb 49f 42f
4:48  -  2 mph 1016.8mb 49f 42f
4:36 1 2 mph 1016.8mb 49f 41f
4:30 2 3 mph 1016.8mb 49f 41f
4:24 2 3 mph 1016.8mb 49f 41f
4:18 1 3 mph 1016.8mb 49f 41f
4:12 2 3 mph 1016.8mb 49f 41f
4:06 2 3 mph 1016.8mb 49f 41f
4:00 2 3 mph 1016.8mb 49f 42f
3:54 1 2 mph 1016.7mb 49f 42f
3:48 1 2 mph 1016.7mb 49f 42f
3:36 2 3 mph 1016.7mb 50f 42f
3:30 3
mph
1016.7mb 50f 42f
3:24 2 3 mph 1016.7mb 50f 42f
3:18 1 2 mph 1016.7mb 50f 42f
3:12 2 3 mph 1016.7mb 50f 42f
3:06 2
mph
1016.8mb 50f 42f
3:00 1 2 mph 1016.8mb 50f 42f
2:54 2
mph
1016.8mb 50f 42f
2:48 1 2 mph 1016.8mb 50f 42f
2:36 2 3 mph 1016.9mb 50f 42f
2:30 2 3 mph 1016.9mb 50f 42f
2:24 1 2 mph 1016.9mb 50f 43f
2:18 2 3 mph 1017mb 50f 43f
2:12  -  1 mph 1017mb 50f 42f
2:06 1 2 mph 1017mb 50f 42f
2:00 2 3 mph 1017mb 50f 42f
1:54 3 5 mph 1017mb 50f 43f
1:48 1 2 mph 1017mb 50f 43f
1:36  -  1 mph 1017mb 50f 43f
1:30  -  1 mph 1017mb 50f 43f
1:24  -  2 mph 1017mb 50f 43f
1:18  -  2 mph 1017mb 50f 43f
1:12 2
mph
1017mb 50f 44f
1:06 1 2 mph 1016.9mb 50f 44f
1:00 2
mph
1016.9mb 50f 44f
12:54  -  1 mph 1016.9mb 50f 44f
12:48  -  mph 1016.9mb 50f 44f
12:36  -  1 mph 1016.9mb 50f 43f
12:30  -  3 mph 1016.9mb 50f 43f
12:24 2 3 mph 1016.9mb 50f 44f
12:18 2 3 mph 1016.9mb 50f 44f
12:12 1 2 mph 1016.9mb 50f 44f
12:06  -  2 mph 1016.9mb 50f 44f
12:00 2
mph
1016.9mb 50f 44f
sam. 05/02 11:54 2 3 mph - - 45f
11:48  -  1 mph - - 45f
11:24  -  mph 1017.1mb 50f -
11:12  -  mph 1017.1mb 50f -
10:54  -  mph 1017.1mb 50f -
10:48  -  mph 1017.1mb 50f -
10:36  -  1 mph 1017.1mb 50f 47f
10:30 1 2 mph 1017.2mb 50f 47f
10:24 1 2 mph 1017.2mb 50f 48f
10:18 1
mph
1017.2mb 50f 48f
10:12  -  1 mph 1017.3mb 50f 48f
10:06  -  mph 1017.3mb 50f 48f
10:00  -  mph 1017.2mb 50f 48f
9:36  -  1 mph 1017.2mb 50f 49f
9:30  -  1 mph 1017.3mb 50f 49f
9:24  -  2 mph 1017.2mb 50f 49f
9:18  -  2 mph 1017.2mb 50f 49f
9:12  -  2 mph 1017.1mb 50f 50f
9:06  -  1 mph - - 50f
9:00  -  1 mph - - 51f
8:54  -  2 mph 1017mb 50f 51f
8:48 1
mph
1017mb 50f 51f
8:36  -  2 mph 1016.9mb 50f 52f
8:30  -  1 mph 1016.9mb 50f 52f
8:24  -  1 mph 1016.9mb 50f 53f
8:18  -  1 mph 1016.8mb 50f 53f
8:12  -  1 mph 1016.8mb 50f 53f
8:06  -  1 mph 1016.8mb 50f 53f
8:00  -  1 mph 1016.8mb 50f 53f
7:54  -  2 mph 1016.8mb 50f 54f
7:48  -  1 mph 1016.8mb 50f 54f
7:36  -  1 mph 1016.8mb 50f 54f
7:30 1 3 mph 1016.9mb 49f 55f
7:24 2 3 mph 1016.9mb 49f 55f
7:18 1 3 mph 1016.9mb 49f 55f
7:12 2 5 mph 1016.9mb 49f 55f
7:06 2 3 mph 1016.9mb 49f 55f
7:00 3 6 mph 1016.9mb 49f 55f
6:54 5 6 mph - - 55f
6:48 2 6 mph - - 55f
6:36 2 6 mph 1017mb 49f 55f
6:30 2 6 mph 1017mb 49f 55f
6:24 2 6 mph 1017mb 49f 55f
6:18 5 8 mph 1017mb 49f 55f
6:12 5 6 mph 1017mb 49f 55f
6:06 1 6 mph 1017.1mb 49f 55f
6:00 3 8 mph 1017.1mb 49f 55f
5:54 5 7 mph 1017.2mb 49f 55f
5:48 5 7 mph 1017.2mb 49f 56f
5:36 7 8 mph 1017.3mb 49f 56f
5:30 5 9 mph 1017.3mb 49f 56f
5:24 8 10 mph 1017.3mb 49f 56f
5:18 6 8 mph 1017.3mb 49f 56f
5:12 7 8 mph 1017.3mb 49f 56f
5:06 3 8 mph 1017.4mb 49f 57f
5:00 5 7 mph 1017.5mb 49f 57f
4:54 5 7 mph 1017.6mb 49f 56f
4:48 2 7 mph 1017.7mb 49f 57f
4:36 2 7 mph 1017.8mb 49f 57f
4:30 3 6 mph 1017.8mb 49f 57f
4:24 2 7 mph 1017.8mb 49f 57f
4:18 2 6 mph 1017.9mb 49f 57f
4:12 3 7 mph 1018mb 49f 56f
4:06 5 8 mph 1018mb 49f 57f
4:00 3 10 mph 1018.1mb 49f 57f
3:54 3 10 mph 1018.1mb 49f 57f
3:48 5 8 mph 1018.2mb 49f 56f
3:36 6 9 mph 1018.3mb 49f 56f
3:30 6 9 mph 1018.3mb 49f 56f
3:24 6 8 mph 1018.4mb 49f 56f
3:18 2 5 mph 1018.5mb 49f 56f
3:12 2 6 mph 1018.6mb 49f 56f
3:06 5 8 mph 1018.7mb 49f 56f
3:00 5 8 mph 1018.7mb 49f 56f
2:54 3 8 mph 1018.7mb 49f 56f
2:48 7 11 mph 1018.8mb 49f 56f
2:36 8 11 mph 1018.8mb 49f 55f
2:30 7 11 mph 1018.8mb 49f 55f
2:24 7 10 mph 1018.9mb 49f 55f
2:18 6 9 mph 1019mb 49f 55f
2:12 7 9 mph 1019.1mb 49f 54f
2:06 6 10 mph 1019.1mb 49f 54f
2:00 5 9 mph 1019.2mb 50f 55f
1:54 7 10 mph 1019.2mb 50f 54f
1:48 5 9 mph 1019.3mb 50f 54f
1:36 6 11 mph 1019.5mb 50f 54f
1:30 7 11 mph 1019.5mb 50f 53f
1:24 9 16 mph 1019.5mb 50f 53f
1:18 8 13 mph 1019.6mb 50f 53f
1:12 8 15 mph 1019.6mb 50f 53f
1:06 7 14 mph 1019.6mb 50f 53f
1:00 6 10 mph 1019.7mb 50f 53f
12:54 7 14 mph 1019.7mb 50f 53f
12:48 8 14 mph 1019.6mb 50f 53f
12:36 5 11 mph 1019.7mb 50f 53f
12:30 5 10 mph 1019.7mb 50f 53f
12:24 7 13 mph 1019.8mb 50f 52f
12:18 9 14 mph 1019.8mb 50f 52f
12:12 9 13 mph 1019.8mb 50f 52f
12:06 9 14 mph 1019.8mb 50f 52f
12:00 9 15 mph 1019.8mb 50f 53f
11:54 8 15 mph 1019.9mb 50f 52f
11:48 7 13 mph 1020mb 50f 52f
11:36 10 16 mph 1020mb 50f 52f
11:30 9 15 mph 1020.1mb 50f 52f
11:24 8 14 mph 1020mb 49f 52f
11:18 6 11 mph 1019.9mb 49f 52f
11:12 6 10 mph 1020mb 49f 52f
11:06 7 11 mph 1020mb 49f 52f
11:00 7 11 mph 1020mb 49f 52f
10:54 5 10 mph 1020.2mb 49f 52f
10:48 7 13 mph 1020.2mb 49f 51f
10:36 6 14 mph 1020.1mb 49f 51f
10:30 8 13 mph 1020mb 49f 51f
10:24 6 11 mph 1020mb 49f 51f
10:18 7 13 mph 1020mb 49f 51f
10:12 7 11 mph 1020mb 49f 51f
10:06 7 11 mph 1020mb 49f 51f
10:00 8 13 mph 1019.9mb 49f 51f
9:54 6 9 mph - - 51f
9:48 5 10 mph 1019.8mb 49f 51f
9:36 2 7 mph 1019.9mb 49f 52f
9:30 3 6 mph 1019.9mb 49f 51f
9:24 2 8 mph 1019.9mb 49f 52f
9:18 3 9 mph 1020mb 49f 51f
9:12 5 9 mph 1020mb 49f 51f
9:06 6 10 mph 1019.9mb 49f 51f
9:00 6 10 mph 1019.9mb 49f 51f
8:54 6 11 mph 1019.9mb 49f 51f
8:48 5 9 mph 1019.9mb 49f 51f
8:36 3 9 mph 1019.9mb 49f 51f
8:30 6 10 mph 1019.9mb 49f 51f
8:24 5 11 mph 1019.8mb 49f 51f
8:18 2 5 mph 1019.8mb 49f 51f
8:12 1 7 mph 1019.9mb 49f 50f
8:06 1 5 mph - - 51f
8:00 2 8 mph - - 51f
7:54 5 9 mph 1019.7mb 49f 50f
7:48 3 9 mph 1019.7mb 49f 50f
7:36  -  2 mph 1019.6mb 49f 51f
7:30  -  2 mph - - 50f
7:24  -  2 mph - - 50f
7:18 1 3 mph 1019.4mb 49f 49f
7:12  -  2 mph 1019.4mb 49f 50f
7:06  -  2 mph 1019.4mb 49f 51f
7:00  -  1 mph 1019.4mb 49f 51f
6:54  -  2 mph 1019.3mb 49f 49f
6:48 1 3 mph 1019.3mb 49f 48f
6:36 1 3 mph 1019.2mb 49f 48f
6:30  -  3 mph 1019.1mb 49f 48f
6:24  -  2 mph 1019.1mb 49f 48f